• Join FlightAware (Why Join?)
  • Login
  • US Flag 
12:37AM EDT


 

Airport Tracker/Info


-or-


 

Live Flight TrackerFlight Track Log ✈ VH-ESZ ✈ 23-Oct-2013 ✈ YTWB - YBAF

Flight Track Log - Related Links

Times and Time Zones

All times are in EDT time to prevent confusion due to time zone crossing. See the VH-ESZ flight status page for this flight to view local times or setup timezone preferences in your user account.

Time Position Orientation Groundspeed Altitude Reporting Facility
EDT Latitude Longitude Course Direction KTS MPH feet Rate Location/Type
10:14PM -27.5695 151.9744 90° East 100 115 3,000  Level Aus ATC (RADAR)
10:15PM -27.5696 152.0100 90° East 138 159 3,000  Level Aus ATC (RADAR)
10:15PM -27.5687 152.0298 87° East 148 170 3,000  Level Aus ATC (RADAR)
10:16PM -27.5682 152.0563 89° East 144 166 3,000  Level Aus ATC (RADAR)
10:17PM -27.5669 152.1052 88° East 142 163 3,000  Level Aus ATC (RADAR)
10:17PM -27.5663 152.1243 88° East 144 166 3,000  Level Aus ATC (RADAR)
10:18PM -27.5655 152.1551 88° East 146 168 3,000  Level Aus ATC (RADAR)
10:18PM -27.5653 152.1810 89° East 141 162 3,000  Level Aus ATC (RADAR)
10:19PM -27.5507 152.2010 51° Northeast 136 157 3,000  Level Aus ATC (RADAR)
10:20PM -27.5332 152.2276 53° Northeast 139 160 3,000  Level Aus ATC (RADAR)
10:20PM -27.5232 152.2421 52° Northeast 138 159 3,000  Level Aus ATC (RADAR)
10:21PM -27.5093 152.2624 52° Northeast 142 163 3,000  Level Aus ATC (RADAR)
10:22PM -27.4838 152.3008 53° Northeast 141 162 3,000  Level Aus ATC (RADAR)
10:22PM -27.4731 152.3159 51° Northeast 146 168 3,000  Level Aus ATC (RADAR)
10:23PM -27.4591 152.3365 53° Northeast 143 165 3,000  Level Aus ATC (RADAR)
10:23PM -27.4434 152.3605 54° Northeast 143 165 3,000  Level Aus ATC (RADAR)
10:24PM -27.4293 152.3805 52° Northeast 140 161 3,000  Level Aus ATC (RADAR)
10:25PM -27.4100 152.4089 53° Northeast 137 158 3,000  Level Aus ATC (RADAR)
10:25PM -27.3987 152.4238 49° Northeast 144 166 3,000  Level Aus ATC (RADAR)
10:26PM -27.3829 152.4423 46° Northeast 142 163 3,000  Level Aus ATC (RADAR)
10:27PM -27.3499 152.4797 45° Northeast 145 167 3,000  Level Aus ATC (RADAR)
10:28PM -27.3387 152.4940 49° Northeast 146 168 3,000  Level Aus ATC (RADAR)
10:28PM -27.3239 152.5124 48° Northeast 139 160 3,000 60 Level Aus ATC (RADAR)
10:29PM -27.3021 152.5399 48° Northeast 141 162 3,100 120 Climbing Aus ATC (RADAR)
10:29PM -27.2899 152.5608 57° Northeast 138 159 3,200 180 Climbing Aus ATC (RADAR)
10:30PM -27.2732 152.5867 54° Northeast 139 160 3,400 240 Climbing Aus ATC (RADAR)
10:31PM -27.2652 152.5995 55° Northeast 129 148 3,500 300 Climbing Aus ATC (RADAR)
10:32PM -27.2437 152.6316 53° Northeast 141 162 3,800 180 Climbing Aus ATC (RADAR)
10:32PM -27.2323 152.6487 53° Northeast 140 161 3,800  Level Aus ATC (RADAR)
10:32PM -27.2235 152.6603 49° Northeast 146 168 3,800  Level Aus ATC (RADAR)
10:33PM -27.2085 152.6816 52° Northeast 147 169 3,800 -120 Level Aus ATC (RADAR)
10:34PM -27.1876 152.7103 51° Northeast 145 167 3,700 -240 Descending Aus ATC (RADAR)
10:34PM -27.1716 152.7340 53° Northeast 144 166 3,500 -360 Descending Aus ATC (RADAR)
10:35PM -27.1475 152.7662 50° Northeast 143 165 3,200 -360 Descending Aus ATC (RADAR)
10:36PM -27.1408 152.7757 51° Northeast 147 169 3,100 -600 Descending Aus ATC (RADAR)
10:36PM -27.1265 152.7949 50° Northeast 139 160 2,700 -660 Descending Aus ATC (RADAR)
10:37PM -27.0939 152.8381 50° Northeast 150 173 1,900 -720 Descending Aus ATC (RADAR)
10:38PM -27.0861 152.8488 51° Northeast 146 168 1,600 -600 Descending Aus ATC (RADAR)
10:38PM -27.0725 152.8675 51° Northeast 137 158 1,400 -480 Descending Aus ATC (RADAR)
10:39PM -27.0532 152.8958 53° Northeast 123 142 900 -360 Descending Aus ATC (RADAR)
10:40PM -27.0420 152.9108 50° Northeast 119 137 900  Level Aus ATC (RADAR)
10:41PM -27.0300 152.9401 65° Northeast 124 143 900 60 Level Aus ATC (RADAR)
10:41PM -27.0267 152.9487 66° East 123 142 1,000  Climbing Aus ATC (RADAR)
10:42PM -27.0014 152.9639 28° Northeast 109 125 900 -360 Descending Aus ATC (RADAR)
10:42PM -26.9905 152.9779 49° Northeast 114 131 500 -600 Descending Aus ATC (RADAR)
10:43PM -26.9817 152.9819 22° Northeast 92 106 400 -240 Descending Aus ATC (RADAR)
10:45PM -27.0280 152.9839 178° South  Level Estimated
10:52PM -27.2191 152.9924 178° South  Level Estimated
10:53PM -27.2463 152.9936 178° South  Level Estimated
10:54PM -27.2736 152.9948 178° South  Level Estimated
10:55PM -27.3009 152.9960 178° South  Level Estimated
10:56PM -27.3282 152.9973 178° South  Level Estimated
10:57PM -27.3555 152.9985 178° South  Level Estimated
10:58PM -27.3828 152.9997 178° South  Level Estimated
10:59PM -27.4101 153.0009 178° South  Level Estimated
11:00PM -27.4374 153.0021 178° South  Level Estimated
11:01PM -27.4647 153.0034 178° South  Level Estimated
11:02PM -27.4920 153.0046 178° South  Level Estimated
11:03PM -27.5193 153.0058 178° South  Level Estimated